createdAt,value
2022-12-19T00:00:11.242Z,0.00
2022-12-19T00:01:15.073Z,0.00
2022-12-19T00:02:11.280Z,0.00
2022-12-19T00:03:11.205Z,0.00
2022-12-19T00:04:11.114Z,0.00
2022-12-19T00:05:11.071Z,0.00
2022-12-19T00:06:11.076Z,0.00
2022-12-19T00:07:11.074Z,0.00
2022-12-19T00:08:17.552Z,0.00
2022-12-19T00:09:11.075Z,0.00
2022-12-19T00:10:11.076Z,0.00
2022-12-19T00:11:11.072Z,0.00
2022-12-19T00:12:17.417Z,0.00
2022-12-19T00:13:13.378Z,0.00
2022-12-19T00:14:12.085Z,0.00
2022-12-19T00:15:11.072Z,0.00
2022-12-19T00:16:14.101Z,0.00
2022-12-19T00:17:11.076Z,0.00
2022-12-19T00:18:11.073Z,0.00
2022-12-19T00:19:11.080Z,0.00
2022-12-19T00:20:11.076Z,0.00
2022-12-19T00:21:11.073Z,0.00
2022-12-19T00:22:11.416Z,0.00
2022-12-19T00:23:11.078Z,0.00
2022-12-19T00:24:21.133Z,0.00
2022-12-19T00:25:13.221Z,0.00
2022-12-19T00:26:20.081Z,0.00
2022-12-19T00:27:11.074Z,0.00
2022-12-19T00:28:11.076Z,0.00
2022-12-19T00:29:14.240Z,0.00
2022-12-19T00:30:11.074Z,0.00
2022-12-19T00:31:11.124Z,0.00
2022-12-19T00:32:11.084Z,0.00
2022-12-19T00:33:11.075Z,0.00
2022-12-19T00:34:11.075Z,0.00
2022-12-19T00:35:11.084Z,0.00
2022-12-19T00:36:12.074Z,0.00
2022-12-19T00:37:11.081Z,0.00
2022-12-19T00:38:11.085Z,0.00
2022-12-19T00:39:11.083Z,0.00
2022-12-19T00:40:11.075Z,0.00
2022-12-19T00:41:17.086Z,0.00
2022-12-19T00:42:11.082Z,0.00
2022-12-19T00:43:11.076Z,0.00
2022-12-19T00:44:12.082Z,0.00
2022-12-19T00:45:11.079Z,0.00
2022-12-19T00:46:11.152Z,0.00
2022-12-19T00:47:11.077Z,0.00
2022-12-19T00:48:11.080Z,0.00
2022-12-19T00:49:11.090Z,0.00
2022-12-19T00:50:11.077Z,0.00
2022-12-19T00:51:14.080Z,0.00
2022-12-19T00:52:11.076Z,0.00
2022-12-19T00:53:11.077Z,0.00
2022-12-19T00:54:11.081Z,0.00
2022-12-19T00:55:18.522Z,0.00
2022-12-19T00:56:17.082Z,0.00
2022-12-19T00:57:11.086Z,0.00
2022-12-19T00:58:11.076Z,0.00
2022-12-19T00:59:11.084Z,0.00
2022-12-19T01:00:11.067Z,0.00
2022-12-19T01:01:13.125Z,0.00
2022-12-19T01:02:11.202Z,0.00
2022-12-19T01:03:11.155Z,0.00
2022-12-19T01:04:30.792Z,0.00
2022-12-19T01:05:13.232Z,0.00
2022-12-19T01:06:11.061Z,0.00
2022-12-19T01:07:12.060Z,0.00
2022-12-19T01:08:11.056Z,0.00
2022-12-19T01:09:12.081Z,0.00
2022-12-19T01:10:11.064Z,0.00
2022-12-19T01:11:11.059Z,0.00
2022-12-19T01:12:15.063Z,0.00
2022-12-19T01:13:11.063Z,0.00
2022-12-19T01:14:17.415Z,0.00
2022-12-19T01:15:13.367Z,0.00
2022-12-19T01:16:11.122Z,0.00
2022-12-19T01:17:11.063Z,0.00
2022-12-19T01:18:11.061Z,0.00
2022-12-19T01:19:11.064Z,0.00
2022-12-19T01:20:11.060Z,0.00
2022-12-19T01:21:11.062Z,0.00
2022-12-19T01:22:11.066Z,0.00
2022-12-19T01:23:11.068Z,0.00
2022-12-19T01:24:11.061Z,0.00
2022-12-19T01:25:11.065Z,0.00
2022-12-19T01:26:11.061Z,0.00
2022-12-19T01:27:11.061Z,0.00
2022-12-19T01:28:13.065Z,0.00
2022-12-19T01:29:11.059Z,0.00
2022-12-19T01:30:11.061Z,0.00
2022-12-19T01:31:11.079Z,0.00
2022-12-19T01:32:11.064Z,0.00
2022-12-19T01:33:12.066Z,0.00
2022-12-19T01:34:11.061Z,0.00
2022-12-19T01:35:17.358Z,0.00
2022-12-19T01:36:13.204Z,0.00
2022-12-19T01:37:11.065Z,0.00
2022-12-19T01:38:13.061Z,0.00
2022-12-19T01:39:11.066Z,0.00
2022-12-19T01:40:11.071Z,0.00
2022-12-19T01:41:11.060Z,0.00
2022-12-19T01:42:23.186Z,0.00
2022-12-19T01:43:15.066Z,0.00
2022-12-19T01:44:11.065Z,0.00
2022-12-19T01:45:19.068Z,0.00
2022-12-19T01:46:14.109Z,0.00
2022-12-19T01:47:12.073Z,0.00
2022-12-19T01:48:16.062Z,0.00
2022-12-19T01:49:24.787Z,0.00
2022-12-19T01:50:13.066Z,0.00
2022-12-19T01:51:16.071Z,0.00
2022-12-19T01:52:13.493Z,0.00
2022-12-19T01:53:13.326Z,0.00
2022-12-19T01:54:13.071Z,0.00
2022-12-19T01:55:11.064Z,0.00
2022-12-19T01:56:11.032Z,0.00
2022-12-19T01:57:12.035Z,0.00
2022-12-19T01:58:11.036Z,0.00
2022-12-19T01:59:16.037Z,0.00
2022-12-19T02:00:11.032Z,0.00
2022-12-19T02:01:11.119Z,0.00
2022-12-19T02:02:16.089Z,0.00
2022-12-19T02:03:16.118Z,0.00
2022-12-19T02:04:11.036Z,0.00
2022-12-19T02:05:11.039Z,0.00
2022-12-19T02:06:12.035Z,0.00
2022-12-19T02:07:15.274Z,0.00
2022-12-19T02:08:13.207Z,0.00
2022-12-19T02:09:11.037Z,0.00
2022-12-19T02:10:11.051Z,0.00
2022-12-19T02:11:11.039Z,0.00
2022-12-19T02:12:11.041Z,0.00
2022-12-19T02:13:11.062Z,0.00
2022-12-19T02:14:11.061Z,0.00
2022-12-19T02:15:11.041Z,0.00
2022-12-19T02:16:23.086Z,0.00
2022-12-19T02:17:19.046Z,0.00
2022-12-19T02:18:19.039Z,0.00
2022-12-19T02:19:23.039Z,0.00
2022-12-19T02:20:21.043Z,0.00
2022-12-19T02:21:19.041Z,0.00
2022-12-19T02:22:19.251Z,0.00
2022-12-19T02:23:19.041Z,0.00
2022-12-19T02:24:21.043Z,0.00
2022-12-19T02:25:19.052Z,0.00
2022-12-19T02:26:21.045Z,0.00
2022-12-19T02:27:19.043Z,0.00
2022-12-19T02:28:19.042Z,0.00
2022-12-19T02:29:21.051Z,0.01
2022-12-19T02:30:16.059Z,0.00
2022-12-19T02:31:19.048Z,0.00
2022-12-19T02:32:19.053Z,0.00
2022-12-19T02:33:20.050Z,0.00
2022-12-19T02:34:19.057Z,0.00
2022-12-19T02:35:19.050Z,0.00
2022-12-19T02:36:18.049Z,0.00
2022-12-19T02:37:19.053Z,0.00
2022-12-19T02:38:17.054Z,0.00
2022-12-19T02:39:15.058Z,0.00
2022-12-19T02:40:15.056Z,0.00
2022-12-19T02:41:20.054Z,0.00
2022-12-19T02:42:12.063Z,0.00
2022-12-19T02:43:12.055Z,0.00
2022-12-19T02:44:12.051Z,0.00
2022-12-19T02:45:12.065Z,0.00
2022-12-19T02:46:11.146Z,0.00
2022-12-19T02:47:11.067Z,0.00
2022-12-19T02:48:13.067Z,0.00
2022-12-19T02:49:15.652Z,0.00
2022-12-19T02:50:13.323Z,0.00
2022-12-19T02:51:11.059Z,0.00
2022-12-19T02:52:17.067Z,0.00
2022-12-19T02:53:11.063Z,0.00
2022-12-19T02:54:11.062Z,0.00
2022-12-19T02:55:13.070Z,0.00
2022-12-19T02:56:21.080Z,0.00
2022-12-19T02:57:21.070Z,0.00
2022-12-19T02:58:19.068Z,0.00
2022-12-19T02:59:19.069Z,0.00
2022-12-19T03:00:13.070Z,0.00
2022-12-19T03:01:21.174Z,0.00
2022-12-19T03:02:19.249Z,0.00
2022-12-19T03:03:19.087Z,0.00
2022-12-19T03:04:21.071Z,0.00
2022-12-19T03:05:18.076Z,0.00
2022-12-19T03:06:19.073Z,0.00
2022-12-19T03:07:18.073Z,0.00
2022-12-19T03:08:21.070Z,0.00
2022-12-19T03:09:19.073Z,0.00
2022-12-19T03:10:21.073Z,0.00
2022-12-19T03:11:12.073Z,0.00
2022-12-19T03:12:17.652Z,0.00
2022-12-19T03:13:19.088Z,0.00
2022-12-19T03:14:14.141Z,0.00
2022-12-19T03:15:11.074Z,0.00
2022-12-19T03:16:11.085Z,0.00
2022-12-19T03:17:11.079Z,0.00
2022-12-19T03:18:11.075Z,0.00
2022-12-19T03:19:11.076Z,0.00
2022-12-19T03:20:16.080Z,0.00
2022-12-19T03:21:19.080Z,0.00
2022-12-19T03:22:11.083Z,0.00
2022-12-19T03:23:11.085Z,0.00
2022-12-19T03:24:11.081Z,0.00
2022-12-19T03:25:11.074Z,0.00
2022-12-19T03:26:19.086Z,0.00
2022-12-19T03:27:19.087Z,0.00
2022-12-19T03:28:15.078Z,0.00
2022-12-19T03:29:17.082Z,0.00
2022-12-19T03:30:14.106Z,0.01
2022-12-19T03:31:11.149Z,0.00
2022-12-19T03:32:13.079Z,0.00
2022-12-19T03:33:11.084Z,0.00
2022-12-19T03:34:15.081Z,0.00
2022-12-19T03:35:17.091Z,0.00
2022-12-19T03:36:15.089Z,0.00
2022-12-19T03:37:13.086Z,0.00
2022-12-19T03:38:12.082Z,0.00
2022-12-19T03:39:11.090Z,0.00
2022-12-19T03:40:17.084Z,0.00
2022-12-19T03:41:12.084Z,0.00
2022-12-19T03:42:16.084Z,0.00
2022-12-19T03:43:12.114Z,0.00
2022-12-19T03:44:11.086Z,0.00
2022-12-19T03:45:11.081Z,0.00
2022-12-19T03:46:19.157Z,0.00
2022-12-19T03:47:20.089Z,0.00
2022-12-19T03:48:15.088Z,0.00
2022-12-19T03:49:11.089Z,0.00
2022-12-19T03:50:11.106Z,0.00
2022-12-19T03:51:19.086Z,0.00
2022-12-19T03:52:19.092Z,0.00
2022-12-19T03:53:21.092Z,0.00
2022-12-19T03:54:19.105Z,0.00
2022-12-19T03:55:16.087Z,0.00
2022-12-19T03:56:21.085Z,0.00
2022-12-19T03:57:16.091Z,0.00
2022-12-19T03:58:18.099Z,0.00
2022-12-19T03:59:16.092Z,0.00
2022-12-19T04:00:13.075Z,0.00
2022-12-19T04:01:11.161Z,0.00
2022-12-19T04:02:11.229Z,0.00
2022-12-19T04:03:11.108Z,0.00
2022-12-19T04:04:13.089Z,0.00
2022-12-19T04:05:12.079Z,0.00
2022-12-19T04:06:11.075Z,0.00
2022-12-19T04:07:11.076Z,0.00
2022-12-19T04:08:11.073Z,0.00
2022-12-19T04:09:11.073Z,0.00
2022-12-19T04:10:13.090Z,0.00
2022-12-19T04:11:16.073Z,0.00
2022-12-19T04:12:18.074Z,0.00
2022-12-19T04:13:14.088Z,0.00
2022-12-19T04:14:15.078Z,0.00
2022-12-19T04:15:11.073Z,0.00
2022-12-19T04:16:21.147Z,0.00
2022-12-19T04:17:19.092Z,0.00
2022-12-19T04:18:13.076Z,0.00
2022-12-19T04:19:19.074Z,0.00
2022-12-19T04:20:17.080Z,0.00
2022-12-19T04:21:17.079Z,0.00
2022-12-19T04:22:16.078Z,0.00
2022-12-19T04:23:20.076Z,0.00
2022-12-19T04:24:18.074Z,0.00
2022-12-19T04:25:15.077Z,0.00
2022-12-19T04:26:11.088Z,0.00
2022-12-19T04:27:13.078Z,0.00
2022-12-19T04:28:19.102Z,0.00
2022-12-19T04:29:11.078Z,0.00
2022-12-19T04:30:12.090Z,0.00
2022-12-19T04:31:13.132Z,0.00
2022-12-19T04:32:11.078Z,0.00
2022-12-19T04:33:11.086Z,0.00
2022-12-19T04:34:11.075Z,0.00
2022-12-19T04:35:11.086Z,0.00
2022-12-19T04:36:11.076Z,0.00
2022-12-19T04:37:11.080Z,0.00
2022-12-19T04:38:11.089Z,0.00
2022-12-19T04:39:11.080Z,0.00
2022-12-19T04:40:11.074Z,0.00
2022-12-19T04:41:11.088Z,0.00
2022-12-19T04:42:11.081Z,0.00
2022-12-19T04:43:11.075Z,0.00
2022-12-19T04:44:11.089Z,0.00
2022-12-19T04:45:11.078Z,0.00
2022-12-19T04:46:11.110Z,0.00
2022-12-19T04:47:11.076Z,0.00
2022-12-19T04:48:11.115Z,0.00
2022-12-19T04:49:11.075Z,0.00
2022-12-19T04:50:11.078Z,0.00
2022-12-19T04:51:11.086Z,0.00
2022-12-19T04:52:11.078Z,0.00
2022-12-19T04:53:11.086Z,0.00
2022-12-19T04:54:11.086Z,0.00
2022-12-19T04:55:11.078Z,0.00
2022-12-19T04:56:11.081Z,0.00
2022-12-19T04:57:11.085Z,0.00
2022-12-19T04:58:11.080Z,0.00
2022-12-19T04:59:11.084Z,0.00
2022-12-19T05:00:12.084Z,0.00
2022-12-19T05:01:11.179Z,0.00
2022-12-19T05:02:11.257Z,0.00
2022-12-19T05:03:11.107Z,0.00
2022-12-19T05:04:11.081Z,0.00
2022-12-19T05:05:11.075Z,0.00
2022-12-19T05:06:12.079Z,0.00
2022-12-19T05:07:11.084Z,0.00
2022-12-19T05:08:11.077Z,0.00
2022-12-19T05:09:11.081Z,0.00
2022-12-19T05:10:11.088Z,0.00
2022-12-19T05:11:19.276Z,0.00
2022-12-19T05:12:13.381Z,0.00
2022-12-19T05:13:11.092Z,0.00
2022-12-19T05:14:11.080Z,0.00
2022-12-19T05:15:11.084Z,0.00
2022-12-19T05:16:11.113Z,0.00
2022-12-19T05:17:11.077Z,0.00
2022-12-19T05:18:11.083Z,0.00
2022-12-19T05:19:11.102Z,0.00
2022-12-19T05:20:11.081Z,0.00
2022-12-19T05:21:11.125Z,0.00
2022-12-19T05:22:11.114Z,0.00
2022-12-19T05:23:16.776Z,0.00
2022-12-19T05:24:13.352Z,0.00
2022-12-19T05:25:11.095Z,0.00
2022-12-19T05:26:11.081Z,0.00
2022-12-19T05:27:11.081Z,0.00
2022-12-19T05:28:11.077Z,0.00
2022-12-19T05:29:11.083Z,0.01
2022-12-19T05:30:11.080Z,0.00
2022-12-19T05:31:14.150Z,0.00
2022-12-19T05:32:11.082Z,0.00
2022-12-19T05:33:11.079Z,0.00
2022-12-19T05:34:11.082Z,0.00
2022-12-19T05:35:11.091Z,0.00
2022-12-19T05:36:11.076Z,0.00
2022-12-19T05:37:11.080Z,0.00
2022-12-19T05:38:11.086Z,0.00
2022-12-19T05:39:11.077Z,0.00
2022-12-19T05:40:11.081Z,0.00
2022-12-19T05:41:11.103Z,0.00
2022-12-19T05:42:12.540Z,0.00
2022-12-19T05:43:11.084Z,0.00
2022-12-19T05:44:11.093Z,0.00
2022-12-19T05:45:11.078Z,0.00
2022-12-19T05:46:11.123Z,0.00
2022-12-19T05:47:11.088Z,0.00
2022-12-19T05:48:11.082Z,0.00
2022-12-19T05:49:11.109Z,0.00
2022-12-19T05:50:11.087Z,0.00
2022-12-19T05:51:11.082Z,0.00
2022-12-19T05:52:11.083Z,0.00
2022-12-19T05:53:11.087Z,0.00
2022-12-19T05:54:11.079Z,0.00
2022-12-19T05:55:11.083Z,0.00
2022-12-19T05:56:12.086Z,0.00
2022-12-19T05:57:11.076Z,0.00
2022-12-19T05:58:11.082Z,0.00
2022-12-19T05:59:11.106Z,0.00
2022-12-19T06:00:12.081Z,0.00
2022-12-19T06:01:19.150Z,0.00
2022-12-19T06:02:11.203Z,0.00
2022-12-19T06:03:11.165Z,0.00
2022-12-19T06:04:11.083Z,0.00
2022-12-19T06:05:11.082Z,0.00
2022-12-19T06:06:13.091Z,0.00
2022-12-19T06:07:11.078Z,0.00
2022-12-19T06:08:11.083Z,0.00
2022-12-19T06:09:11.094Z,0.00
2022-12-19T06:10:11.084Z,0.00
2022-12-19T06:11:11.080Z,0.00
2022-12-19T06:12:11.091Z,0.00
2022-12-19T06:13:11.092Z,0.00
2022-12-19T06:14:11.080Z,0.00
2022-12-19T06:15:11.084Z,0.00
2022-12-19T06:16:15.216Z,0.00
2022-12-19T06:17:11.088Z,0.00
2022-12-19T06:18:11.094Z,0.00
2022-12-19T06:19:11.081Z,0.00
2022-12-19T06:20:11.081Z,0.00
2022-12-19T06:21:15.083Z,0.00
2022-12-19T06:22:11.107Z,0.00
2022-12-19T06:23:11.088Z,0.00
2022-12-19T06:24:11.082Z,0.00
2022-12-19T06:25:11.080Z,0.00
2022-12-19T06:26:15.545Z,0.00
2022-12-19T06:27:13.166Z,0.00
2022-12-19T06:28:11.088Z,0.00
2022-12-19T06:29:11.083Z,0.00
2022-12-19T06:30:11.090Z,0.00
2022-12-19T06:31:11.120Z,0.00
2022-12-19T06:32:11.084Z,0.01
2022-12-19T06:33:11.090Z,0.00
2022-12-19T06:34:11.082Z,0.00
2022-12-19T06:35:11.086Z,0.00
2022-12-19T06:36:15.091Z,0.00
2022-12-19T06:37:11.082Z,0.00
2022-12-19T06:38:11.081Z,0.00
2022-12-19T06:39:14.089Z,0.00
2022-12-19T06:40:11.081Z,0.00
2022-12-19T06:41:15.088Z,0.00
2022-12-19T06:42:15.083Z,0.00
2022-12-19T06:43:11.089Z,0.00
2022-12-19T06:44:11.671Z,0.00
2022-12-19T06:45:11.084Z,0.00
2022-12-19T06:46:11.132Z,0.00
2022-12-19T06:47:11.082Z,0.00
2022-12-19T06:48:11.089Z,0.00
2022-12-19T06:49:11.083Z,0.00
2022-12-19T06:50:11.082Z,0.00
2022-12-19T06:51:11.093Z,0.00
2022-12-19T06:52:11.098Z,0.00
2022-12-19T06:53:11.079Z,0.00
2022-12-19T06:54:13.103Z,0.00
2022-12-19T06:55:11.092Z,0.00
2022-12-19T06:56:11.078Z,0.00
2022-12-19T06:57:11.091Z,0.00
2022-12-19T06:58:11.097Z,0.00
2022-12-19T06:59:14.081Z,0.00
2022-12-19T07:00:11.060Z,0.00
2022-12-19T07:01:21.186Z,0.00
2022-12-19T07:02:21.214Z,0.00
2022-12-19T07:03:12.107Z,0.00
2022-12-19T07:04:11.060Z,0.00
2022-12-19T07:05:11.065Z,0.00
2022-12-19T07:06:11.057Z,0.00
2022-12-19T07:07:11.056Z,0.00
2022-12-19T07:08:11.066Z,0.00
2022-12-19T07:09:11.066Z,0.00
2022-12-19T07:10:11.090Z,0.00
2022-12-19T07:11:11.067Z,0.00
2022-12-19T07:12:11.061Z,0.00
2022-12-19T07:13:11.058Z,0.00
2022-12-19T07:14:11.069Z,0.00
2022-12-19T07:15:11.060Z,0.00
2022-12-19T07:16:11.087Z,0.00
2022-12-19T07:17:11.072Z,0.00
2022-12-19T07:18:11.055Z,0.00
2022-12-19T07:19:11.068Z,0.00
2022-12-19T07:20:11.067Z,0.00
2022-12-19T07:21:11.060Z,0.00
2022-12-19T07:22:11.058Z,0.00
2022-12-19T07:23:17.076Z,0.00
2022-12-19T07:24:11.062Z,0.00
2022-12-19T07:25:11.059Z,0.00
2022-12-19T07:26:11.063Z,0.00
2022-12-19T07:27:11.061Z,0.00
2022-12-19T07:28:11.057Z,0.00
2022-12-19T07:29:11.064Z,0.00
2022-12-19T07:30:11.061Z,0.00
2022-12-19T07:31:11.060Z,0.00
2022-12-19T07:32:11.060Z,0.00
2022-12-19T07:33:11.843Z,0.00
2022-12-19T07:34:11.066Z,0.00
2022-12-19T07:35:11.062Z,0.00
2022-12-19T07:36:11.327Z,0.00
2022-12-19T07:37:11.057Z,0.00
2022-12-19T07:38:11.063Z,0.00
2022-12-19T07:39:11.079Z,0.00
2022-12-19T07:40:11.065Z,0.00
2022-12-19T07:41:11.069Z,0.00
2022-12-19T07:42:11.063Z,0.00
2022-12-19T07:43:11.076Z,0.00
2022-12-19T07:44:11.060Z,0.00
2022-12-19T07:45:11.063Z,0.00
2022-12-19T07:46:11.128Z,0.00
2022-12-19T07:47:11.064Z,0.00
2022-12-19T07:48:11.069Z,0.00
2022-12-19T07:49:11.059Z,0.00
2022-12-19T07:50:11.063Z,0.00
2022-12-19T07:51:11.072Z,0.00
2022-12-19T07:52:11.062Z,0.00
2022-12-19T07:53:11.063Z,0.00
2022-12-19T07:54:11.068Z,0.00
2022-12-19T07:55:11.062Z,0.00
2022-12-19T07:56:11.065Z,0.00
2022-12-19T07:57:11.066Z,0.00
2022-12-19T07:58:11.062Z,0.00
2022-12-19T07:59:11.063Z,0.00
2022-12-19T08:00:11.065Z,0.00
2022-12-19T08:01:11.108Z,0.00
2022-12-19T08:02:11.171Z,0.00
2022-12-19T08:03:11.213Z,0.00
2022-12-19T08:04:11.063Z,0.00
2022-12-19T08:05:11.064Z,0.00
2022-12-19T08:06:11.075Z,0.00
2022-12-19T08:07:11.063Z,0.00
2022-12-19T08:08:11.073Z,0.00
2022-12-19T08:09:11.067Z,0.00
2022-12-19T08:10:11.062Z,0.00
2022-12-19T08:11:11.071Z,0.00
2022-12-19T08:12:11.065Z,0.00
2022-12-19T08:13:11.076Z,0.00
2022-12-19T08:14:11.072Z,0.00
2022-12-19T08:15:11.358Z,0.00
2022-12-19T08:16:11.118Z,0.00
2022-12-19T08:17:20.205Z,0.00
2022-12-19T08:18:13.666Z,0.00
2022-12-19T08:19:11.066Z,0.00
2022-12-19T08:20:11.067Z,0.00
2022-12-19T08:21:11.075Z,0.00
2022-12-19T08:22:11.062Z,0.00
2022-12-19T08:23:11.076Z,0.00
2022-12-19T08:24:11.074Z,0.00
2022-12-19T08:25:11.070Z,0.00
2022-12-19T08:26:12.068Z,0.00
2022-12-19T08:27:11.070Z,0.00
2022-12-19T08:28:11.069Z,0.00
2022-12-19T08:29:11.069Z,0.00
2022-12-19T08:30:11.083Z,0.00
2022-12-19T08:31:14.186Z,0.00
2022-12-19T08:32:14.358Z,0.00
2022-12-19T08:33:13.249Z,0.00
2022-12-19T08:34:11.068Z,0.00
2022-12-19T08:35:11.069Z,0.00
2022-12-19T08:36:11.073Z,0.00
2022-12-19T08:37:11.067Z,0.00
2022-12-19T08:38:11.067Z,0.00
2022-12-19T08:39:11.066Z,0.00
2022-12-19T08:40:11.070Z,0.00
2022-12-19T08:41:11.068Z,0.00
2022-12-19T08:42:11.068Z,0.00
2022-12-19T08:43:11.070Z,0.00
2022-12-19T08:44:12.069Z,0.00
2022-12-19T08:45:11.074Z,0.00
2022-12-19T08:46:11.124Z,0.00
2022-12-19T08:47:11.067Z,0.00
2022-12-19T08:48:11.099Z,0.00
2022-12-19T08:49:11.070Z,0.00
2022-12-19T08:50:11.067Z,0.00
2022-12-19T08:51:11.072Z,0.00
2022-12-19T08:52:11.077Z,0.00
2022-12-19T08:53:11.068Z,0.00
2022-12-19T08:54:11.863Z,0.00
2022-12-19T08:55:11.079Z,0.00
2022-12-19T08:56:13.075Z,0.00
2022-12-19T08:57:11.074Z,0.00
2022-12-19T08:58:11.073Z,0.00
2022-12-19T08:59:11.070Z,0.00
2022-12-19T09:00:11.076Z,0.00
2022-12-19T09:01:12.100Z,0.00
2022-12-19T09:02:11.353Z,0.00
2022-12-19T09:03:11.216Z,0.00
2022-12-19T09:05:13.806Z,0.00
2022-12-19T09:06:01.765Z,0.00
2022-12-19T09:06:18.928Z,0.00
2022-12-19T09:07:15.179Z,0.00
2022-12-19T09:08:11.076Z,0.00
2022-12-19T09:09:11.079Z,0.00
2022-12-19T09:10:11.080Z,0.01
2022-12-19T09:11:12.073Z,0.00
2022-12-19T09:12:11.070Z,0.00
2022-12-19T09:13:11.075Z,0.00
2022-12-19T09:14:11.088Z,0.00
2022-12-19T09:15:11.078Z,0.00
2022-12-19T09:16:15.075Z,0.00
2022-12-19T09:17:11.158Z,0.00
2022-12-19T09:18:11.078Z,0.00
2022-12-19T09:19:11.077Z,0.00
2022-12-19T09:20:11.086Z,0.00
2022-12-19T09:21:11.079Z,0.01
2022-12-19T09:22:11.077Z,0.01
2022-12-19T09:23:11.082Z,0.00
2022-12-19T09:24:11.093Z,0.00
2022-12-19T09:25:11.074Z,0.00
2022-12-19T09:26:11.088Z,0.01
2022-12-19T09:27:11.076Z,0.00
2022-12-19T09:28:27.490Z,0.02
2022-12-19T09:29:20.488Z,0.01
2022-12-19T09:30:13.357Z,0.01
2022-12-19T09:31:14.169Z,0.00
2022-12-19T09:32:11.079Z,0.00
2022-12-19T09:33:11.085Z,0.01
2022-12-19T09:34:11.076Z,0.00
2022-12-19T09:35:13.585Z,0.01
2022-12-19T09:36:13.099Z,0.01
2022-12-19T09:37:15.667Z,0.01
2022-12-19T09:38:13.259Z,0.02
2022-12-19T09:39:11.082Z,0.02
2022-12-19T09:40:15.085Z,0.03
2022-12-19T09:41:19.079Z,0.03
2022-12-19T09:42:19.077Z,0.03
2022-12-19T09:43:21.108Z,0.04
2022-12-19T09:44:19.075Z,0.06
2022-12-19T09:45:27.575Z,0.04
2022-12-19T09:46:19.456Z,0.03
2022-12-19T09:47:14.082Z,0.02
2022-12-19T09:48:17.802Z,0.03
2022-12-19T09:49:18.357Z,0.01
2022-12-19T09:50:19.081Z,0.01
2022-12-19T09:51:21.083Z,0.02
2022-12-19T09:52:18.080Z,0.02
2022-12-19T09:53:19.092Z,0.02
2022-12-19T09:54:19.080Z,0.03
2022-12-19T09:55:21.079Z,0.02
2022-12-19T09:56:14.083Z,0.04
2022-12-19T09:57:17.088Z,0.02
2022-12-19T09:58:19.091Z,0.03
2022-12-19T09:59:19.080Z,0.04
2022-12-19T10:00:19.066Z,0.04
2022-12-19T10:01:20.213Z,0.05
2022-12-19T10:02:19.332Z,0.04
2022-12-19T10:03:19.274Z,0.06
2022-12-19T10:04:15.071Z,0.05
2022-12-19T10:05:45.243Z,0.04
2022-12-19T10:07:11.329Z,0.04
2022-12-19T10:07:36.249Z,0.04
2022-12-19T10:08:21.344Z,0.05
2022-12-19T10:10:40.114Z,0.05
2022-12-19T10:12:35.158Z,0.05
2022-12-19T10:12:40.084Z,0.05
2022-12-19T10:12:42.502Z,0.05
2022-12-19T10:13:23.241Z,0.04
2022-12-19T10:14:19.077Z,0.04
2022-12-19T10:15:18.062Z,0.04
2022-12-19T10:16:21.134Z,0.04
2022-12-19T10:17:25.093Z,0.04
2022-12-19T10:18:21.314Z,0.04
2022-12-19T10:19:12.073Z,0.03
2022-12-19T10:20:21.066Z,0.03
2022-12-19T10:21:19.062Z,0.04
2022-12-19T10:22:19.534Z,0.06
2022-12-19T10:23:19.093Z,0.04
2022-12-19T10:24:21.066Z,0.04
2022-12-19T10:25:21.063Z,0.04
2022-12-19T10:26:18.081Z,0.03
2022-12-19T10:27:21.066Z,0.04
2022-12-19T10:28:19.071Z,0.03
2022-12-19T10:29:19.066Z,0.03
2022-12-19T10:30:19.097Z,0.03
2022-12-19T10:31:20.998Z,0.02
2022-12-19T10:32:21.103Z,0.02
2022-12-19T10:33:20.729Z,0.04
2022-12-19T10:34:19.076Z,0.03
2022-12-19T10:35:15.062Z,0.02
2022-12-19T10:36:12.067Z,0.03
2022-12-19T10:37:26.598Z,0.02
2022-12-19T10:38:21.316Z,0.02
2022-12-19T10:39:18.081Z,0.03
2022-12-19T10:40:27.769Z,0.03
2022-12-19T10:41:21.252Z,0.03
2022-12-19T10:42:19.075Z,0.02
2022-12-19T10:43:30.645Z,0.03
2022-12-19T10:44:13.346Z,0.04
2022-12-19T10:45:16.097Z,0.04
2022-12-19T10:46:21.107Z,0.03
2022-12-19T10:47:15.101Z,0.03
2022-12-19T10:48:17.065Z,0.03
2022-12-19T10:49:17.273Z,0.02
2022-12-19T10:50:14.064Z,0.02
2022-12-19T10:51:18.082Z,0.02
2022-12-19T10:52:11.080Z,0.02
2022-12-19T10:53:11.124Z,0.02
2022-12-19T10:54:11.077Z,0.02
2022-12-19T10:55:19.064Z,0.03
2022-12-19T10:56:19.070Z,0.03
2022-12-19T10:57:19.108Z,0.03
2022-12-19T10:58:17.105Z,0.01
2022-12-19T10:59:18.073Z,0.02
2022-12-19T11:00:15.096Z,0.01
2022-12-19T11:01:21.135Z,0.02
2022-12-19T11:02:19.273Z,0.02
2022-12-19T11:03:14.245Z,0.03
2022-12-19T11:04:23.660Z,0.02
2022-12-19T11:05:19.176Z,0.01
2022-12-19T11:06:19.093Z,0.02
2022-12-19T11:07:19.085Z,0.02
2022-12-19T11:08:19.071Z,0.02
2022-12-19T11:09:19.115Z,0.02
2022-12-19T11:10:41.945Z,0.03
2022-12-19T11:13:31.859Z,0.02
2022-12-19T11:16:43.781Z,0.03
2022-12-19T11:19:23.235Z,0.02
2022-12-19T11:19:27.159Z,0.02
2022-12-19T11:19:43.338Z,0.02
2022-12-19T11:21:31.706Z,0.02
2022-12-19T11:22:11.721Z,0.02
2022-12-19T11:27:03.911Z,0.03
2022-12-19T11:29:16.786Z,0.02
2022-12-19T11:29:30.189Z,0.03
2022-12-19T11:29:32.816Z,0.03
2022-12-19T11:29:41.737Z,0.02
2022-12-19T11:29:42.227Z,0.03
2022-12-19T11:29:54.115Z,0.02
2022-12-19T11:30:05.876Z,0.02
2022-12-19T11:30:08.862Z,0.03
2022-12-19T11:30:26.152Z,0.03
2022-12-19T11:30:37.768Z,0.04
2022-12-19T11:31:51.129Z,0.02
2022-12-19T11:31:52.948Z,0.04
2022-12-19T11:32:10.316Z,0.02
2022-12-19T11:32:39.666Z,0.02
2022-12-19T11:33:18.530Z,0.03
2022-12-19T11:34:16.078Z,0.01
2022-12-19T11:35:24.876Z,0.02
2022-12-19T11:36:19.073Z,0.01
2022-12-19T11:37:20.071Z,0.03
2022-12-19T11:38:15.126Z,0.03
2022-12-19T11:39:19.077Z,0.02
2022-12-19T11:40:21.079Z,0.00
2022-12-19T11:41:19.082Z,0.01
2022-12-19T11:42:21.074Z,0.01
2022-12-19T11:43:43.587Z,0.02
2022-12-19T11:44:23.282Z,0.02
2022-12-19T11:45:19.097Z,0.02
2022-12-19T11:46:22.271Z,0.01
2022-12-19T11:47:21.075Z,0.01
2022-12-19T11:48:21.075Z,0.02
2022-12-19T11:49:21.075Z,0.03
2022-12-19T11:50:19.077Z,0.00
2022-12-19T11:51:19.082Z,0.00
2022-12-19T11:52:54.051Z,0.00
2022-12-19T11:53:19.632Z,0.01
2022-12-19T11:54:19.075Z,0.02
2022-12-19T11:55:21.085Z,0.02
2022-12-19T11:56:16.839Z,0.01
2022-12-19T11:57:13.097Z,0.01
2022-12-19T11:58:13.102Z,0.00
2022-12-19T11:59:19.080Z,0.00
2022-12-19T12:00:17.077Z,0.01
2022-12-19T12:01:19.107Z,0.01
2022-12-19T12:02:21.083Z,0.01
2022-12-19T12:03:23.129Z,0.00
2022-12-19T12:04:19.094Z,0.02
2022-12-19T12:05:19.081Z,0.04
2022-12-19T12:06:16.078Z,0.03
2022-12-19T12:07:19.224Z,0.03
2022-12-19T12:09:30.335Z,0.03
2022-12-19T12:14:12.069Z,0.04
2022-12-19T12:16:13.578Z,0.03
2022-12-19T12:17:15.369Z,0.03
2022-12-19T12:21:49.135Z,0.05
2022-12-19T12:23:38.612Z,0.03
2022-12-19T12:23:48.383Z,0.06
2022-12-19T12:24:12.783Z,0.04
2022-12-19T12:27:29.995Z,0.04
2022-12-19T12:30:59.231Z,0.06
2022-12-19T12:31:07.744Z,0.04
2022-12-19T12:31:10.129Z,0.03
2022-12-19T12:31:13.347Z,0.07
2022-12-19T12:31:16.008Z,0.04
2022-12-19T12:31:17.245Z,0.05
2022-12-19T12:31:18.720Z,0.05
2022-12-19T12:31:19.069Z,0.04
2022-12-19T12:31:40.358Z,0.06
2022-12-19T12:31:44.721Z,0.04
2022-12-19T12:31:45.688Z,0.07
2022-12-19T12:31:46.049Z,0.05
2022-12-19T12:31:52.737Z,0.03
2022-12-19T12:31:57.036Z,0.03
2022-12-19T12:35:31.525Z,0.07
2022-12-19T12:35:33.274Z,0.05
2022-12-19T12:35:33.436Z,0.11
2022-12-19T12:37:10.978Z,0.02
2022-12-19T12:37:51.426Z,0.01
2022-12-19T12:38:25.752Z,0.03
2022-12-19T12:39:24.238Z,0.03
2022-12-19T12:40:21.312Z,0.02
2022-12-19T12:41:19.089Z,0.03
2022-12-19T12:42:19.087Z,0.04
2022-12-19T12:43:19.086Z,0.06
2022-12-19T12:44:11.091Z,0.06
2022-12-19T12:45:19.094Z,0.05
2022-12-19T12:46:18.140Z,0.03
2022-12-19T12:47:19.087Z,0.05
2022-12-19T12:48:21.083Z,0.07
2022-12-19T12:49:19.086Z,0.04
2022-12-19T12:50:15.107Z,0.04
2022-12-19T12:51:11.093Z,0.04
2022-12-19T12:52:15.083Z,0.04
2022-12-19T12:53:11.082Z,0.02
2022-12-19T12:54:13.106Z,0.01
2022-12-19T12:55:17.083Z,0.03
2022-12-19T12:56:13.102Z,0.06
2022-12-19T12:57:19.106Z,0.01
2022-12-19T12:58:23.756Z,0.02
2022-12-19T12:59:20.088Z,0.03
2022-12-19T13:00:19.060Z,0.04
2022-12-19T13:01:15.115Z,0.05
2022-12-19T13:02:20.300Z,0.05
2022-12-19T13:03:16.133Z,0.05
2022-12-19T13:04:21.065Z,0.02
2022-12-19T13:05:21.064Z,0.02
2022-12-19T13:06:19.063Z,0.01
2022-12-19T13:07:15.073Z,0.03
2022-12-19T13:08:19.065Z,0.06
2022-12-19T13:09:19.063Z,0.04
2022-12-19T13:10:19.094Z,0.03
2022-12-19T13:11:19.066Z,0.04
2022-12-19T13:12:23.066Z,0.05
2022-12-19T13:13:16.623Z,0.05
2022-12-19T13:14:21.062Z,0.04
2022-12-19T13:15:19.080Z,0.05
2022-12-19T13:16:19.112Z,0.05
2022-12-19T13:17:18.074Z,0.03
2022-12-19T13:18:19.068Z,0.03
2022-12-19T13:19:25.817Z,0.01
2022-12-19T13:20:25.306Z,0.02